Time;durP1;ratioP1;P1;durP2;ratioP2;P2;SDS_P1;SDS_P2;PMS_P1;PMS_P2;Temp;Humidity;BMP_temperature;BMP_pressure;BME280_temperature;BME280_humidity;BME280_pressure;Samples;Min_cycle;Max_cycle;Signal;HPM_P1;HPM_P2
2022/12/10 00:02:19;;;;;;;1.00;1.00;;;-2.60;99.90;;;;;;5044945;28;20055;-77
2022/12/10 00:04:45;;;;;;;2.63;2.42;;;-2.60;99.90;;;;;;5042194;28;20060;-76
2022/12/10 00:07:10;;;;;;;1.17;1.17;;;-2.60;99.90;;;;;;5047416;28;20029;-77
2022/12/10 00:09:36;;;;;;;1.00;1.00;;;-2.60;99.90;;;;;;5045936;28;20032;-78
2022/12/10 00:12:01;;;;;;;1.10;1.10;;;-2.60;99.90;;;;;;5038748;28;20021;-77
2022/12/10 00:14:27;;;;;;;0.95;0.95;;;-2.70;99.90;;;;;;5041135;28;20039;-76
2022/12/10 00:16:52;;;;;;;1.45;1.45;;;-3.20;99.90;;;;;;5051000;28;20029;-76
2022/12/10 00:19:18;;;;;;;1.33;1.33;;;-3.30;99.90;;;;;;5042091;28;20185;-78
2022/12/10 00:21:45;;;;;;;1.00;1.00;;;-3.20;99.90;;;;;;5032004;28;20025;-76
2022/12/10 00:24:10;;;;;;;1.08;1.08;;;-3.10;99.90;;;;;;5042942;28;20028;-77
2022/12/10 00:26:38;;;;;;;1.10;1.10;;;-3.00;99.90;;;;;;5038229;28;20031;-77
2022/12/10 00:29:06;;;;;;;0.90;0.90;;;-3.00;99.90;;;;;;5040414;28;20026;-76
2022/12/10 00:31:34;;;;;;;1.00;1.00;;;-3.10;99.90;;;;;;5046717;28;20032;-77
2022/12/10 00:34:03;;;;;;;1.98;1.88;;;-3.30;99.90;;;;;;5043396;28;20025;-76
2022/12/10 00:36:32;;;;;;;0.80;0.80;;;-3.30;99.90;;;;;;5039762;28;20083;-77
2022/12/10 00:38:57;;;;;;;0.90;0.90;;;-3.20;99.90;;;;;;5052817;28;20025;-77
2022/12/10 00:41:23;;;;;;;1.73;1.73;;;-3.40;99.90;;;;;;5039736;28;20143;-76
2022/12/10 00:43:49;;;;;;;1.05;1.05;;;-3.30;99.90;;;;;;5038908;28;20387;-78
2022/12/10 00:46:16;;;;;;;1.17;1.17;;;-3.20;99.90;;;;;;5037422;28;20057;-76
2022/12/10 00:48:42;;;;;;;1.17;1.17;;;-3.10;99.90;;;;;;5052724;28;20398;-76
2022/12/10 00:51:14;;;;;;;1.00;1.00;;;-3.10;99.90;;;;;;5033811;28;20025;-78
2022/12/10 00:53:42;;;;;;;2.00;1.95;;;-3.00;99.90;;;;;;5031647;28;20116;-75
2022/12/10 00:56:12;;;;;;;1.13;1.13;;;-2.90;99.90;;;;;;5040311;28;20033;-75
2022/12/10 00:58:39;;;;;;;4.32;4.07;;;-2.80;99.90;;;;;;5037331;28;20029;-76
2022/12/10 01:01:12;;;;;;;0.90;0.90;;;-2.80;99.90;;;;;;5031642;28;20396;-77
2022/12/10 01:03:38;;;;;;;2.50;2.40;;;-2.80;99.90;;;;;;5044607;28;20051;-76
2022/12/10 01:06:17;;;;;;;0.93;0.93;;;-2.70;99.90;;;;;;5041812;28;20036;-76
2022/12/10 01:08:44;;;;;;;1.55;1.45;;;-2.70;99.90;;;;;;5037562;28;20087;-76
2022/12/10 01:11:10;;;;;;;4.07;1.90;;;-2.60;99.90;;;;;;5040010;28;20032;-77
2022/12/10 01:13:37;;;;;;;1.77;1.67;;;-2.60;99.90;;;;;;5045040;28;20021;-77
2022/12/10 01:16:05;;;;;;;2.30;2.20;;;-2.70;99.90;;;;;;5043005;28;20063;-77
2022/12/10 01:18:31;;;;;;;0.88;0.88;;;-2.70;99.90;;;;;;5046145;28;20099;-77
2022/12/10 01:21:04;;;;;;;1.17;1.17;;;-2.60;99.90;;;;;;5031392;28;20049;-76
2022/12/10 01:23:35;;;;;;;2.95;2.85;;;-2.50;99.90;;;;;;5044914;28;20064;-78
2022/12/10 01:26:03;;;;;;;1.08;1.08;;;-2.50;99.90;;;;;;5044098;28;20036;-76
2022/12/10 01:28:33;;;;;;;4.50;4.13;;;-2.50;99.90;;;;;;5037321;28;20390;-77
2022/12/10 01:31:05;;;;;;;1.13;1.13;;;-2.50;99.90;;;;;;5051152;28;20064;-76
2022/12/10 01:33:31;;;;;;;1.00;1.00;;;-2.40;99.90;;;;;;5040211;28;20078;-77
2022/12/10 01:36:05;;;;;;;1.35;1.35;;;-2.30;99.90;;;;;;5036867;28;20021;-77
2022/12/10 01:38:31;;;;;;;1.17;1.17;;;-2.30;99.90;;;;;;5030400;28;20117;-77
2022/12/10 01:40:58;;;;;;;1.15;1.15;;;-2.30;99.90;;;;;;5044008;28;20065;-76
2022/12/10 01:43:23;;;;;;;1.20;1.20;;;-2.20;99.90;;;;;;5040264;28;20060;-77
2022/12/10 01:45:49;;;;;;;1.13;1.13;;;-2.10;99.90;;;;;;5038366;28;20060;-76
2022/12/10 01:48:14;;;;;;;1.10;1.10;;;-2.00;99.90;;;;;;5040719;28;20479;-77
2022/12/10 01:50:40;;;;;;;1.20;1.20;;;-2.10;99.90;;;;;;5045209;28;20386;-75
2022/12/10 01:53:06;;;;;;;2.75;2.65;;;-2.10;99.90;;;;;;5039942;28;20111;-77
2022/12/10 01:55:44;;;;;;;1.15;1.15;;;-2.10;99.90;;;;;;5038078;28;20037;-76
2022/12/10 01:58:12;;;;;;;1.50;1.50;;;-2.00;99.90;;;;;;5051490;28;20484;-77
2022/12/10 02:00:45;;;;;;;6.03;5.45;;;-2.00;99.90;;;;;;5038259;28;20060;-76
2022/12/10 02:03:20;;;;;;;1.50;1.50;;;-2.00;99.90;;;;;;5044300;28;20100;-77
2022/12/10 02:06:04;;;;;;;1.30;1.30;;;-2.10;99.90;;;;;;5025554;28;20052;-76
2022/12/10 02:08:40;;;;;;;1.45;1.45;;;-2.10;99.90;;;;;;5036376;28;20022;-76
2022/12/10 02:11:51;;;;;;;1.20;1.20;;;-2.00;99.90;;;;;;5040953;28;20103;-76
2022/12/10 02:14:29;;;;;;;1.25;1.25;;;-1.90;99.90;;;;;;5015325;28;20319;-77
2022/12/10 02:16:59;;;;;;;1.20;1.20;;;-1.90;99.90;;;;;;5038192;28;20028;-76
2022/12/10 02:19:28;;;;;;;1.30;1.30;;;-1.90;99.90;;;;;;5039321;28;20029;-76
2022/12/10 02:21:55;;;;;;;5.78;5.35;;;-1.90;99.90;;;;;;5031599;28;20480;-77
2022/12/10 02:24:29;;;;;;;1.80;1.80;;;-1.90;99.90;;;;;;5046584;28;20070;-76
2022/12/10 02:27:38;;;;;;;1.13;1.13;;;-2.10;99.90;;;;;;5029851;28;20088;-77
2022/12/10 02:30:04;;;;;;;1.23;1.23;;;-2.20;99.90;;;;;;4994457;28;20041;-77
2022/12/10 02:32:34;;;;;;;3.67;3.50;;;-2.20;99.90;;;;;;5046935;28;20025;-76
2022/12/10 02:35:05;;;;;;;1.50;1.50;;;-2.10;99.90;;;;;;5022150;28;20040;-76
2022/12/10 02:37:55;;;;;;;1.40;1.40;;;-2.10;99.90;;;;;;5035529;28;20029;-76
2022/12/10 02:40:26;;;;;;;2.85;2.75;;;-2.20;99.90;;;;;;5035914;28;20042;-76
2022/12/10 02:42:52;;;;;;;1.67;1.67;;;-2.10;99.90;;;;;;5047114;28;20021;-76
2022/12/10 02:45:21;;;;;;;3.15;2.97;;;-1.90;99.90;;;;;;5046321;28;20094;-76
2022/12/10 02:47:48;;;;;;;1.50;1.50;;;-1.90;99.90;;;;;;5041152;28;20020;-76
2022/12/10 02:50:16;;;;;;;1.50;1.50;;;-1.80;99.90;;;;;;5043143;28;20033;-76
2022/12/10 02:52:41;;;;;;;1.20;1.20;;;-1.80;99.90;;;;;;5046869;28;20025;-76
2022/12/10 02:55:12;;;;;;;1.10;1.10;;;-1.90;99.90;;;;;;5034833;28;20674;-76
2022/12/10 02:57:42;;;;;;;1.48;1.48;;;-2.00;99.90;;;;;;5039795;28;20158;-76
2022/12/10 03:00:15;;;;;;;2.85;2.75;;;-2.10;99.90;;;;;;5040850;28;20026;-76
2022/12/10 03:03:00;;;;;;;1.40;1.40;;;-2.00;99.90;;;;;;5033340;28;20399;-76
2022/12/10 03:05:57;;;;;;;1.30;1.30;;;-1.90;99.90;;;;;;5046649;28;20030;-76
2022/12/10 03:08:42;;;;;;;1.20;1.20;;;-1.80;99.90;;;;;;5038026;28;20037;-75
2022/12/10 03:11:13;;;;;;;1.63;1.63;;;-1.90;99.90;;;;;;5045807;28;20070;-76
2022/12/10 03:14:07;;;;;;;1.55;1.55;;;-1.90;99.90;;;;;;5041081;28;20021;-77
2022/12/10 03:16:41;;;;;;;4.18;3.97;;;-2.00;99.90;;;;;;5040892;28;20025;-76
2022/12/10 03:19:13;;;;;;;5.55;5.25;;;-2.10;99.90;;;;;;5043845;28;20037;-76
2022/12/10 03:21:40;;;;;;;2.42;2.33;;;-2.10;99.90;;;;;;5033062;28;20036;-76
2022/12/10 03:24:07;;;;;;;1.50;1.50;;;-2.10;99.90;;;;;;5044374;28;20025;-76
2022/12/10 03:26:33;;;;;;;1.38;1.38;;;-2.10;99.90;;;;;;5036151;28;20072;-76
2022/12/10 03:29:06;;;;;;;1.10;1.10;;;-2.00;99.90;;;;;;5032806;28;20118;-76
2022/12/10 03:31:34;;;;;;;1.30;1.30;;;-1.90;99.90;;;;;;5047456;28;20029;-76
2022/12/10 03:34:01;;;;;;;1.45;1.45;;;-2.00;99.90;;;;;;5048460;28;20025;-77
2022/12/10 03:36:28;;;;;;;1.20;1.20;;;-2.00;99.90;;;;;;5044407;28;20064;-77
2022/12/10 03:38:54;;;;;;;1.30;1.30;;;-2.00;99.90;;;;;;5044721;28;20032;-77
2022/12/10 03:41:20;;;;;;;1.50;1.50;;;-1.80;99.90;;;;;;5037920;28;20383;-78
2022/12/10 03:43:57;;;;;;;2.15;2.05;;;-1.80;99.90;;;;;;5036449;28;20025;-79
2022/12/10 03:46:25;;;;;;;1.30;1.30;;;-1.90;99.90;;;;;;5035612;28;20390;-77
2022/12/10 03:48:51;;;;;;;1.38;1.38;;;-1.90;99.90;;;;;;5047505;28;20531;-77
2022/12/10 03:51:17;;;;;;;1.63;1.63;;;-2.00;99.90;;;;;;5053084;28;20022;-77
2022/12/10 03:53:43;;;;;;;1.60;1.60;;;-2.00;99.90;;;;;;5054380;28;20017;-78
2022/12/10 03:56:08;;;;;;;1.63;1.63;;;-1.90;99.90;;;;;;5040792;28;20029;-77
2022/12/10 03:58:34;;;;;;;1.45;1.45;;;-1.90;99.90;;;;;;5035467;28;20017;-75
2022/12/10 04:00:59;;;;;;;1.35;1.35;;;-1.90;99.90;;;;;;5044865;28;20051;-76
2022/12/10 04:03:25;;;;;;;1.75;1.75;;;-1.90;99.90;;;;;;5047029;28;20108;-76
2022/12/10 04:05:50;;;;;;;3.30;3.17;;;-1.80;99.90;;;;;;5039996;28;20029;-75
2022/12/10 04:08:16;;;;;;;1.10;1.10;;;-1.70;99.90;;;;;;5038614;28;20018;-75
2022/12/10 04:10:42;;;;;;;1.42;1.42;;;-1.80;99.90;;;;;;5048517;28;20029;-76
2022/12/10 04:18:35;;;;;;;1.50;1.50;;;-1.60;99.90;;;;;;5047264;28;20103;-76
2022/12/10 04:29:13;;;;;;;1.25;1.25;;;-1.70;99.90;;;;;;5040180;28;20070;-76
2022/12/10 04:31:38;;;;;;;1.58;1.58;;;-1.70;99.90;;;;;;5039955;28;20021;-76
2022/12/10 04:34:04;;;;;;;2.00;1.90;;;-1.70;99.90;;;;;;5038550;28;20022;-76
2022/12/10 04:36:29;;;;;;;2.45;2.35;;;-1.70;99.90;;;;;;5032882;28;20025;-74
2022/12/10 04:38:55;;;;;;;3.78;3.58;;;-1.80;99.90;;;;;;5045884;28;20083;-76
2022/12/10 04:41:20;;;;;;;1.40;1.40;;;-1.70;99.90;;;;;;5039396;28;20033;-76
2022/12/10 04:43:46;;;;;;;5.65;5.15;;;-1.70;99.90;;;;;;5039352;28;20024;-77
2022/12/10 04:46:11;;;;;;;1.50;1.50;;;-1.60;99.90;;;;;;5045630;28;20031;-78
2022/12/10 04:48:37;;;;;;;2.35;2.22;;;-1.60;99.90;;;;;;5043529;28;20060;-78
2022/12/10 04:51:04;;;;;;;2.55;2.45;;;-1.70;99.90;;;;;;5052027;28;20021;-78
2022/12/10 04:53:29;;;;;;;1.58;1.58;;;-1.70;99.90;;;;;;5039552;28;20026;-78
2022/12/10 04:55:55;;;;;;;1.50;1.50;;;-1.70;99.90;;;;;;5038233;28;20082;-77
2022/12/10 04:58:20;;;;;;;2.75;2.65;;;-1.70;99.90;;;;;;5039442;28;20065;-77
2022/12/10 05:00:46;;;;;;;1.92;1.92;;;-1.70;99.90;;;;;;5046174;28;20074;-78
2022/12/10 05:03:11;;;;;;;1.50;1.50;;;-1.80;99.90;;;;;;5044296;28;20025;-77
2022/12/10 05:05:37;;;;;;;3.30;3.20;;;-1.80;99.90;;;;;;5032401;28;20040;-76
2022/12/10 05:08:04;;;;;;;1.83;1.83;;;-1.80;99.90;;;;;;5044687;28;20021;-75
2022/12/10 05:10:29;;;;;;;3.67;3.53;;;-1.70;99.90;;;;;;5037613;28;20021;-75
2022/12/10 05:12:55;;;;;;;1.67;1.67;;;-1.60;99.90;;;;;;5039865;28;20116;-76
2022/12/10 05:15:21;;;;;;;1.70;1.70;;;-1.70;99.90;;;;;;5044263;28;20025;-76
2022/12/10 05:17:46;;;;;;;1.80;1.80;;;-1.70;99.90;;;;;;5043102;28;20048;-76
2022/12/10 05:20:12;;;;;;;1.42;1.42;;;-1.70;99.90;;;;;;5037480;28;20475;-75
2022/12/10 05:25:22;;;;;;;1.75;1.75;;;-1.70;99.90;;;;;;5040805;28;20489;-76
2022/12/10 05:27:47;;;;;;;2.03;2.03;;;-1.60;99.90;;;;;;5037118;28;20128;-76
2022/12/10 05:30:13;;;;;;;1.40;1.40;;;-1.60;99.90;;;;;;5042241;28;20031;-77
2022/12/10 05:32:38;;;;;;;6.72;6.07;;;-1.60;99.90;;;;;;5045262;28;20013;-76
2022/12/10 05:35:05;;;;;;;5.63;5.25;;;-1.60;99.90;;;;;;5040278;28;20474;-76
2022/12/10 05:37:30;;;;;;;1.70;1.70;;;-1.60;99.90;;;;;;5036803;28;20029;-77
2022/12/10 05:39:56;;;;;;;2.25;2.15;;;-1.60;99.90;;;;;;5042477;28;20392;-76
2022/12/10 05:42:21;;;;;;;1.63;1.63;;;-1.60;99.90;;;;;;5044048;28;20060;-76
2022/12/10 05:44:47;;;;;;;5.82;5.53;;;-1.60;99.90;;;;;;5038701;28;20037;-77
2022/12/10 05:47:12;;;;;;;3.33;3.13;;;-1.60;99.90;;;;;;5038024;28;20041;-77
2022/12/10 05:49:38;;;;;;;1.75;1.75;;;-1.70;99.90;;;;;;5043650;28;20033;-76
2022/12/10 05:52:04;;;;;;;3.40;3.20;;;-1.60;99.90;;;;;;5046608;28;20033;-77
2022/12/10 05:54:29;;;;;;;1.70;1.70;;;-1.60;99.90;;;;;;5040853;28;20029;-77
2022/12/10 05:56:55;;;;;;;2.90;2.80;;;-1.70;99.90;;;;;;5037239;28;20368;-76
2022/12/10 05:59:20;;;;;;;4.20;3.78;;;-1.70;99.90;;;;;;5036922;28;20030;-77
2022/12/10 06:01:46;;;;;;;2.00;2.00;;;-1.60;99.90;;;;;;5032929;28;20479;-76
2022/12/10 06:04:12;;;;;;;1.50;1.50;;;-1.70;99.90;;;;;;5044875;28;20033;-76
2022/12/10 06:06:39;;;;;;;2.78;2.67;;;-1.70;99.90;;;;;;5045556;28;20032;-77
2022/12/10 06:09:07;;;;;;;2.17;2.08;;;-1.80;99.90;;;;;;5036358;28;20901;-78
2022/12/10 06:11:32;;;;;;;1.83;1.83;;;-1.80;99.90;;;;;;5038550;28;20017;-77
2022/12/10 06:13:59;;;;;;;1.55;1.55;;;-1.70;99.90;;;;;;5052029;28;20033;-77
2022/12/10 06:16:25;;;;;;;1.80;1.80;;;-1.70;99.90;;;;;;5039318;28;20506;-77
2022/12/10 06:18:51;;;;;;;1.50;1.50;;;-1.70;99.90;;;;;;5047347;28;20037;-77
2022/12/10 06:21:18;;;;;;;1.60;1.60;;;-1.70;99.90;;;;;;5043948;28;20036;-76
2022/12/10 06:23:44;;;;;;;2.45;2.35;;;-1.70;99.90;;;;;;5048096;28;20083;-77
2022/12/10 06:26:14;;;;;;;6.03;5.82;;;-1.70;99.90;;;;;;5048078;28;20022;-78
2022/12/10 06:28:40;;;;;;;6.60;6.28;;;-1.70;99.90;;;;;;5040209;28;20044;-77
2022/12/10 06:31:06;;;;;;;1.90;1.83;;;-1.70;99.90;;;;;;5038383;28;20468;-77
2022/12/10 06:33:32;;;;;;;4.45;4.18;;;-1.70;99.90;;;;;;5050075;28;20116;-77
2022/12/10 06:35:57;;;;;;;1.45;1.45;;;-1.60;99.90;;;;;;5036366;28;20513;-76
2022/12/10 06:38:23;;;;;;;6.88;6.55;;;-1.50;99.90;;;;;;5043154;28;20707;-76
2022/12/10 06:40:49;;;;;;;1.80;1.80;;;-1.50;99.90;;;;;;5044542;28;20475;-77
2022/12/10 06:43:15;;;;;;;1.60;1.60;;;-1.50;99.90;;;;;;5039017;28;20040;-76
2022/12/10 06:45:42;;;;;;;2.53;2.40;;;-1.60;99.90;;;;;;5036424;28;20036;-77
2022/12/10 06:48:08;;;;;;;2.30;2.25;;;-1.70;99.90;;;;;;5042802;28;20064;-77
2022/12/10 06:50:34;;;;;;;14.13;7.35;;;-1.60;99.90;;;;;;5043462;28;20021;-76
2022/12/10 06:52:59;;;;;;;1.88;1.88;;;-1.60;99.90;;;;;;5039510;28;20664;-77
2022/12/10 06:55:25;;;;;;;1.92;1.92;;;-1.50;99.90;;;;;;5049502;28;20053;-77
2022/12/10 06:57:52;;;;;;;2.50;2.40;;;-1.40;99.90;;;;;;5030881;28;20450;-78
2022/12/10 07:00:18;;;;;;;2.10;2.08;;;-1.50;99.90;;;;;;5044716;28;20376;-77
2022/12/10 07:02:43;;;;;;;1.80;1.80;;;-1.50;99.90;;;;;;5039291;28;20021;-77
2022/12/10 07:05:09;;;;;;;1.65;1.65;;;-1.50;99.90;;;;;;5035996;28;20067;-77
2022/12/10 07:07:35;;;;;;;6.55;6.20;;;-1.40;99.90;;;;;;5030821;28;20030;-77
2022/12/10 07:10:01;;;;;;;1.65;1.65;;;-1.30;99.90;;;;;;5044690;28;20108;-77
2022/12/10 07:12:27;;;;;;;3.15;3.05;;;-1.40;99.90;;;;;;5041423;28;20486;-76
2022/12/10 07:14:52;;;;;;;1.70;1.70;;;-1.40;99.90;;;;;;5041045;28;20487;-78
2022/12/10 07:17:18;;;;;;;4.13;3.95;;;-1.40;99.90;;;;;;5044831;28;20080;-78
2022/12/10 07:19:44;;;;;;;4.40;4.00;;;-1.40;99.90;;;;;;5046480;28;20021;-77
2022/12/10 07:22:09;;;;;;;2.17;2.13;;;-1.40;99.90;;;;;;5034518;28;20036;-77
2022/12/10 07:24:35;;;;;;;1.80;1.80;;;-1.50;99.90;;;;;;5034210;28;20026;-77
2022/12/10 07:27:04;;;;;;;4.43;4.22;;;-1.40;99.90;;;;;;5046024;28;20044;-77
2022/12/10 07:29:30;;;;;;;3.33;3.17;;;-1.50;99.90;;;;;;5047845;28;20017;-77
2022/12/10 07:31:56;;;;;;;7.20;3.88;;;-1.50;99.90;;;;;;5042921;28;20021;-77
2022/12/10 07:34:21;;;;;;;1.60;1.60;;;-1.40;99.90;;;;;;5040089;28;20120;-76
2022/12/10 07:36:47;;;;;;;6.30;5.85;;;-1.30;99.90;;;;;;5045176;28;20103;-80
2022/12/10 07:39:17;;;;;;;1.50;1.50;;;-1.30;99.90;;;;;;5047592;28;20479;-77
2022/12/10 07:41:52;;;;;;;28.55;25.73;;;-1.30;99.90;;;;;;5043307;28;20025;-77
2022/12/10 07:44:24;;;;;;;1.98;1.98;;;-1.30;99.90;;;;;;5039684;28;20025;-78
2022/12/10 07:46:51;;;;;;;5.95;5.55;;;-1.20;99.90;;;;;;5042476;28;20029;-75
2022/12/10 07:49:17;;;;;;;2.00;2.00;;;-1.30;99.90;;;;;;5047467;28;20031;-76
2022/12/10 07:51:46;;;;;;;4.25;4.05;;;-1.40;99.90;;;;;;5045208;28;20017;-77
2022/12/10 07:54:13;;;;;;;2.38;2.28;;;-1.40;99.90;;;;;;5039313;28;20491;-76
2022/12/10 07:56:38;;;;;;;2.10;2.10;;;-1.40;99.90;;;;;;5042070;28;20030;-78
2022/12/10 07:59:04;;;;;;;2.00;2.00;;;-1.40;99.90;;;;;;5045876;28;20025;-78
2022/12/10 08:01:29;;;;;;;2.63;2.53;;;-1.40;99.90;;;;;;5033067;28;20095;-77
2022/12/10 08:03:56;;;;;;;3.22;3.13;;;-1.20;99.90;;;;;;5038117;28;20059;-77
2022/12/10 08:06:23;;;;;;;1.70;1.70;;;-1.20;99.90;;;;;;5040919;28;20025;-78
2022/12/10 08:08:49;;;;;;;2.28;2.17;;;-1.30;99.90;;;;;;5052411;28;20021;-77
2022/12/10 08:11:16;;;;;;;3.90;3.65;;;-1.40;99.90;;;;;;5040115;28;20028;-77
2022/12/10 08:13:43;;;;;;;2.05;2.05;;;-1.30;99.90;;;;;;5052637;28;20029;-77
2022/12/10 08:16:20;;;;;;;1.95;1.95;;;-1.20;99.90;;;;;;5053718;28;20021;-77
2022/12/10 08:18:45;;;;;;;2.45;2.35;;;-1.10;99.90;;;;;;5036787;28;20116;-77
2022/12/10 08:21:14;;;;;;;2.22;2.17;;;-1.10;99.90;;;;;;5032679;28;20064;-77
2022/12/10 08:23:40;;;;;;;2.60;2.50;;;-1.30;99.90;;;;;;5032805;28;20075;-77
2022/12/10 08:26:09;;;;;;;2.78;2.67;;;-1.30;99.90;;;;;;5031404;28;20029;-77
2022/12/10 08:28:35;;;;;;;2.83;2.72;;;-1.20;99.90;;;;;;5031266;28;20052;-78
2022/12/10 08:31:01;;;;;;;2.83;2.72;;;-1.30;99.90;;;;;;5037540;28;20017;-77
2022/12/10 08:33:26;;;;;;;2.83;2.72;;;-1.30;99.90;;;;;;5039113;28;20117;-76
2022/12/10 08:35:52;;;;;;;2.70;2.60;;;-1.30;99.90;;;;;;5042277;28;20029;-75
2022/12/10 08:38:17;;;;;;;2.70;2.60;;;-1.30;99.90;;;;;;5041790;28;20136;-75
2022/12/10 08:40:44;;;;;;;3.65;3.55;;;-1.20;99.90;;;;;;5042802;28;20097;-76
2022/12/10 08:43:09;;;;;;;2.45;2.35;;;-1.00;99.90;;;;;;5043454;28;20013;-76
2022/12/10 08:45:35;;;;;;;2.70;2.60;;;-0.90;99.90;;;;;;5043653;28;20390;-79
2022/12/10 08:48:02;;;;;;;2.72;2.63;;;-0.90;99.90;;;;;;5044256;28;20029;-79
2022/12/10 08:50:27;;;;;;;2.05;2.05;;;-0.90;99.90;;;;;;5041625;28;20241;-76
2022/12/10 08:52:53;;;;;;;8.15;7.55;;;-0.90;99.90;;;;;;5047976;28;20025;-77
2022/12/10 08:55:19;;;;;;;2.53;2.42;;;-0.90;99.90;;;;;;5053093;28;20040;-77
2022/12/10 08:57:44;;;;;;;2.20;2.10;;;-1.00;99.90;;;;;;5032286;28;20034;-77
2022/12/10 09:00:10;;;;;;;2.22;2.20;;;-0.80;99.90;;;;;;5034312;28;20036;-77
2022/12/10 09:02:37;;;;;;;2.38;2.28;;;-0.70;99.90;;;;;;5034108;28;20056;-77
2022/12/10 09:05:03;;;;;;;2.85;2.75;;;-0.80;99.90;;;;;;5032175;28;20476;-77
2022/12/10 09:07:29;;;;;;;2.35;2.25;;;-0.70;99.90;;;;;;5032031;28;20037;-77
2022/12/10 09:09:54;;;;;;;2.45;2.35;;;-0.70;99.90;;;;;;5031190;28;20017;-76
2022/12/10 09:12:20;;;;;;;2.17;2.15;;;-0.70;99.90;;;;;;5032803;28;20496;-77
2022/12/10 09:14:45;;;;;;;2.20;2.13;;;-0.60;99.90;;;;;;5032580;28;20056;-77
2022/12/10 09:17:11;;;;;;;2.45;2.35;;;-0.60;99.90;;;;;;5033183;28;20036;-77
2022/12/10 09:19:36;;;;;;;3.78;3.67;;;-0.50;99.90;;;;;;5040657;28;20030;-77
2022/12/10 09:22:02;;;;;;;2.35;2.25;;;-0.50;99.90;;;;;;5037378;28;20048;-76
2022/12/10 09:24:28;;;;;;;2.53;2.42;;;-0.60;99.90;;;;;;5036539;28;20030;-76
2022/12/10 09:26:54;;;;;;;2.30;2.22;;;-0.50;99.90;;;;;;5036992;28;20410;-76
2022/12/10 09:29:20;;;;;;;2.45;2.35;;;-0.50;99.90;;;;;;5038313;28;20025;-75
2022/12/10 09:31:50;;;;;;;2.72;2.63;;;-0.40;99.90;;;;;;5040060;28;20025;-77
2022/12/10 09:34:16;;;;;;;2.47;2.38;;;-0.40;99.90;;;;;;5036331;28;20108;-77
2022/12/10 09:36:41;;;;;;;2.97;2.88;;;-0.20;99.90;;;;;;5037093;28;20063;-77
2022/12/10 09:39:07;;;;;;;2.72;2.63;;;-0.20;99.90;;;;;;5034650;28;20030;-77
2022/12/10 09:41:47;;;;;;;2.65;2.55;;;-0.10;99.90;;;;;;5027393;28;20026;-76
2022/12/10 09:44:34;;;;;;;2.67;2.58;;;0.00;99.90;;;;;;5050277;28;20017;-77
2022/12/10 09:47:03;;;;;;;2.95;2.85;;;0.10;99.90;;;;;;5058956;28;20078;-77
2022/12/10 09:49:47;;;;;;;4.93;4.53;;;0.00;99.90;;;;;;5056782;28;20040;-76
2022/12/10 09:52:16;;;;;;;3.17;3.08;;;0.20;99.90;;;;;;5056355;28;20394;-77
2022/12/10 09:54:47;;;;;;;3.67;3.58;;;0.20;99.90;;;;;;5056215;28;20075;-77
2022/12/10 09:57:32;;;;;;;3.70;3.50;;;0.30;99.90;;;;;;5039487;28;20538;-76
2022/12/10 10:00:07;;;;;;;3.38;3.28;;;0.20;99.90;;;;;;5035596;28;20505;-77
2022/12/10 10:02:32;;;;;;;5.90;5.50;;;0.10;99.90;;;;;;5036448;28;20053;-77
2022/12/10 10:05:07;;;;;;;4.55;4.35;;;0.00;99.90;;;;;;5036926;28;20291;-77
2022/12/10 10:07:41;;;;;;;4.68;4.38;;;-0.10;99.90;;;;;;5035575;28;20026;-77
2022/12/10 10:10:21;;;;;;;3.22;3.13;;;-0.20;99.90;;;;;;5036882;28;20606;-76
2022/12/10 10:12:49;;;;;;;19.88;11.48;;;-0.30;99.90;;;;;;5035609;28;20033;-76
2022/12/10 10:15:18;;;;;;;4.07;3.97;;;-0.40;99.90;;;;;;5035509;28;20048;-77
2022/12/10 10:17:46;;;;;;;5.82;5.45;;;-0.40;99.90;;;;;;5035824;28;20423;-77
2022/12/10 10:20:12;;;;;;;3.65;3.45;;;-0.50;99.90;;;;;;5037549;28;20032;-76
2022/12/10 10:22:39;;;;;;;3.97;3.88;;;-0.40;99.90;;;;;;5034153;28;20120;-76
2022/12/10 10:25:12;;;;;;;4.47;4.28;;;-0.40;99.90;;;;;;5031075;28;20025;-78
2022/12/10 10:27:38;;;;;;;7.22;6.90;;;-0.40;99.90;;;;;;5031047;28;20025;-76
2022/12/10 10:30:06;;;;;;;3.45;3.35;;;-0.40;99.90;;;;;;5031235;28;20014;-75
2022/12/10 10:32:35;;;;;;;3.65;3.53;;;-0.30;99.90;;;;;;5031361;28;20112;-76
2022/12/10 10:35:01;;;;;;;3.58;3.47;;;-0.30;99.90;;;;;;5031820;28;20018;-76
2022/12/10 10:37:35;;;;;;;6.40;6.03;;;-0.20;99.90;;;;;;5029801;28;20026;-76
2022/12/10 10:40:02;;;;;;;2.83;2.72;;;-0.10;99.90;;;;;;5029939;28;20025;-77
2022/12/10 10:42:40;;;;;;;3.65;3.55;;;0.00;99.90;;;;;;5031040;28;20113;-77
2022/12/10 10:45:33;;;;;;;6.10;5.85;;;0.10;99.90;;;;;;5031692;28;20392;-77
2022/12/10 10:48:14;;;;;;;6.72;6.43;;;0.10;99.90;;;;;;5034215;28;20022;-77
2022/12/10 10:51:11;;;;;;;2.85;2.75;;;0.10;99.90;;;;;;5032835;28;20100;-76
2022/12/10 10:53:51;;;;;;;2.30;2.20;;;0.00;99.90;;;;;;5033273;28;20044;-77
2022/12/10 10:56:25;;;;;;;2.97;2.88;;;0.20;99.90;;;;;;5043975;28;20029;-77
2022/12/10 10:59:16;;;;;;;4.32;3.92;;;0.20;99.90;;;;;;5032541;28;20064;-77
2022/12/10 11:01:49;;;;;;;3.13;3.03;;;0.30;99.90;;;;;;5034152;28;20025;-76
2022/12/10 11:04:17;;;;;;;2.70;2.60;;;0.30;99.90;;;;;;5034414;28;20060;-77
2022/12/10 11:06:44;;;;;;;3.85;3.75;;;0.30;99.90;;;;;;5034535;28;20079;-76
2022/12/10 11:09:24;;;;;;;2.75;2.65;;;0.40;99.90;;;;;;5035001;28;20024;-76
2022/12/10 11:11:57;;;;;;;3.95;3.75;;;0.50;99.90;;;;;;5035676;28;20540;-76
2022/12/10 11:14:32;;;;;;;3.20;3.10;;;0.60;99.90;;;;;;5035481;28;20025;-78
2022/12/10 11:17:09;;;;;;;3.63;3.53;;;0.60;99.90;;;;;;5032293;28;20105;-76
2022/12/10 11:19:41;;;;;;;3.10;3.00;;;0.80;99.90;;;;;;5047302;28;20025;-76
2022/12/10 11:22:36;;;;;;;5.05;4.13;;;0.80;99.90;;;;;;5035679;28;20021;-76
2022/12/10 11:25:05;;;;;;;3.28;3.17;;;0.90;99.90;;;;;;5028279;28;20037;-76
2022/12/10 11:27:56;;;;;;;3.17;3.08;;;1.00;99.90;;;;;;5040377;28;20025;-76
2022/12/10 11:30:24;;;;;;;2.60;2.50;;;1.10;99.90;;;;;;5008454;28;20025;-76
2022/12/10 11:33:12;;;;;;;4.03;3.92;;;1.10;99.90;;;;;;5048331;28;20021;-76
2022/12/10 11:36:03;;;;;;;6.93;6.53;;;1.10;99.90;;;;;;5046579;28;20487;-76
2022/12/10 11:39:01;;;;;;;3.35;3.25;;;1.10;99.90;;;;;;5033434;28;20026;-76
2022/12/10 11:41:38;;;;;;;3.25;3.15;;;1.10;99.90;;;;;;5009870;28;20037;-76
2022/12/10 11:44:15;;;;;;;2.97;2.88;;;1.20;99.90;;;;;;5032050;28;20506;-75
2022/12/10 11:46:52;;;;;;;3.35;3.15;;;1.10;99.90;;;;;;5040578;28;20124;-76
2022/12/10 11:49:54;;;;;;;3.20;3.10;;;1.10;99.90;;;;;;5032956;28;20026;-76
2022/12/10 11:52:30;;;;;;;3.88;3.78;;;1.20;99.90;;;;;;5032327;28;20487;-76
2022/12/10 11:55:23;;;;;;;3.42;3.33;;;1.20;99.90;;;;;;5033962;28;20472;-76
2022/12/10 11:57:59;;;;;;;3.00;2.90;;;1.20;99.90;;;;;;5029866;28;20030;-76
2022/12/10 12:00:28;;;;;;;8.55;6.90;;;1.30;99.90;;;;;;5039403;28;20117;-76
2022/12/10 12:03:31;;;;;;;64.22;43.53;;;1.20;99.90;;;;;;5042064;28;20060;-74
2022/12/10 12:06:06;;;;;;;3.35;3.25;;;1.10;99.90;;;;;;5022257;28;20112;-76
2022/12/10 12:09:07;;;;;;;3.90;3.70;;;1.10;99.90;;;;;;5036075;28;20047;-76
2022/12/10 12:11:56;;;;;;;3.88;3.63;;;1.10;99.90;;;;;;5030638;28;20105;-76
2022/12/10 12:14:34;;;;;;;6.35;5.97;;;1.20;99.90;;;;;;5032431;28;20080;-76
2022/12/10 12:17:28;;;;;;;3.50;3.40;;;1.20;99.90;;;;;;5031050;28;20029;-76
2022/12/10 12:20:17;;;;;;;4.30;4.10;;;1.40;99.90;;;;;;5045795;28;20044;-76
2022/12/10 12:22:48;;;;;;;12.18;6.80;;;1.50;99.90;;;;;;5045410;28;20056;-76
2022/12/10 12:25:27;;;;;;;3.45;3.35;;;1.50;99.90;;;;;;5020763;28;20506;-76
2022/12/10 12:28:13;;;;;;;2.70;2.60;;;1.50;99.90;;;;;;5033725;28;20018;-76
2022/12/10 12:30:43;;;;;;;4.32;4.13;;;1.50;99.90;;;;;;5040419;28;20024;-76
2022/12/10 12:33:24;;;;;;;3.42;3.33;;;1.50;99.90;;;;;;5052460;28;20048;-76
2022/12/10 12:35:57;;;;;;;3.65;3.45;;;1.30;99.90;;;;;;5048991;28;20568;-77
2022/12/10 12:38:30;;;;;;;5.07;4.72;;;1.40;99.90;;;;;;5034072;28;20529;-76
2022/12/10 12:41:23;;;;;;;3.50;3.38;;;1.30;99.90;;;;;;5033217;28;20018;-76
2022/12/10 12:44:29;;;;;;;3.22;3.13;;;1.20;99.90;;;;;;5041376;28;20458;-75
2022/12/10 12:46:58;;;;;;;2.88;2.78;;;1.20;99.90;;;;;;5024993;28;20116;-75
2022/12/10 12:49:29;;;;;;;3.88;3.67;;;1.10;99.90;;;;;;5052353;28;20018;-76
2022/12/10 12:52:08;;;;;;;2.60;2.50;;;1.20;99.90;;;;;;5040342;28;20021;-76
2022/12/10 12:54:33;;;;;;;4.50;4.35;;;1.00;99.90;;;;;;5019992;28;20068;-75
2022/12/10 12:57:22;;;;;;;7.07;6.55;;;0.90;99.90;;;;;;5047083;28;20052;-76
2022/12/10 13:00:02;;;;;;;14.32;13.25;;;0.90;99.90;;;;;;5040147;28;20038;-76
2022/12/10 13:03:05;;;;;;;3.30;3.20;;;0.80;99.90;;;;;;5052804;28;20052;-76
2022/12/10 13:05:34;;;;;;;4.07;3.78;;;0.70;99.90;;;;;;5039051;28;20029;-76
2022/12/10 13:08:18;;;;;;;6.55;4.05;;;0.70;99.90;;;;;;5037523;28;20021;-76
2022/12/10 13:11:03;;;;;;;4.90;3.22;;;0.60;99.90;;;;;;5031227;28;20021;-77
2022/12/10 13:13:33;;;;;;;3.50;3.28;;;0.50;99.90;;;;;;5030391;28;20025;-77
2022/12/10 13:16:36;;;;;;;2.15;2.10;;;0.50;99.90;;;;;;5029209;28;20021;-76
2022/12/10 13:19:20;;;;;;;5.40;3.80;;;0.60;99.90;;;;;;5031743;28;20491;-75
2022/12/10 13:22:01;;;;;;;2.53;2.42;;;0.60;99.90;;;;;;5031881;28;20026;-76
2022/12/10 13:24:42;;;;;;;1.90;1.90;;;0.50;99.90;;;;;;5032297;28;20108;-77